Airport View

Enter AWOS ICAO identifier for current METAR.

ex. KFNL

KACT 080251Z 09003KT 10SM BKN090 26/22 A2990 RMK AO2 SLP116 T02560222 55003

8 Jul 2020 03:35

Phone: 254-759-3065

Other Area AWOS: KCNW - KPWG - KTPL - KINJ

TAF AMD KACT 080259Z 0803/0824 11006KT P6SM BKN100 FM081200 20008KT P6SM SCT015 BKN060 FM081800 17008KT P6SM FEW050 SCT250